createdAt,value
2019-02-28T00:01:21.124Z,48.60
2019-02-28T00:03:53.151Z,49.97
2019-02-28T00:06:24.747Z,46.37
2019-02-28T00:08:56.228Z,44.67
2019-02-28T00:11:28.592Z,42.73
2019-02-28T00:14:00.385Z,49.23
2019-02-28T00:16:35.653Z,51.97
2019-02-28T00:19:05.145Z,45.13
2019-02-28T00:21:37.378Z,46.73
2019-02-28T00:24:09.792Z,42.33
2019-02-28T00:26:46.312Z,40.97
2019-02-28T00:29:13.817Z,43.87
2019-02-28T00:31:49.428Z,40.57
2019-02-28T00:34:18.615Z,49.17
2019-02-28T00:36:53.396Z,45.33
2019-02-28T00:39:25.233Z,39.53
2019-02-28T00:41:56.503Z,44.37
2019-02-28T00:44:30.479Z,47.60
2019-02-28T00:47:00.424Z,49.87
2019-02-28T00:49:31.435Z,42.37
2019-02-28T00:52:02.755Z,49.00
2019-02-28T00:54:34.373Z,45.03
2019-02-28T00:57:07.280Z,42.07
2019-02-28T00:59:39.468Z,53.97
2019-02-28T01:02:11.290Z,46.00
2019-02-28T01:04:42.772Z,48.80
2019-02-28T01:07:16.218Z,49.10
2019-02-28T01:09:47.508Z,48.70
2019-02-28T01:12:19.951Z,57.97
2019-02-28T01:14:51.954Z,40.13
2019-02-28T01:17:26.736Z,51.83
2019-02-28T01:19:59.237Z,46.23
2019-02-28T01:22:31.035Z,46.20
2019-02-28T01:25:02.446Z,46.13
2019-02-28T01:27:34.299Z,49.83
2019-02-28T01:30:06.719Z,54.80
2019-02-28T01:32:39.432Z,58.20
2019-02-28T01:35:10.908Z,60.53
2019-02-28T01:37:42.580Z,50.87
2019-02-28T01:40:15.952Z,57.87
2019-02-28T01:42:47.703Z,64.60
2019-02-28T01:45:19.150Z,52.00
2019-02-28T01:47:52.378Z,53.97
2019-02-28T01:50:24.589Z,45.57
2019-02-28T01:52:56.867Z,41.40
2019-02-28T01:55:29.395Z,53.07
2019-02-28T01:58:02.434Z,46.63
2019-02-28T02:00:33.466Z,43.67
2019-02-28T02:03:04.396Z,44.83
2019-02-28T02:05:35.667Z,47.10
2019-02-28T02:08:07.732Z,49.40
2019-02-28T02:10:39.308Z,56.37
2019-02-28T02:13:11.024Z,47.97
2019-02-28T02:15:42.478Z,54.80
2019-02-28T02:18:14.466Z,45.33
2019-02-28T02:20:46.441Z,50.03
2019-02-28T02:23:19.435Z,52.23
2019-02-28T02:25:50.586Z,48.83
2019-02-28T02:28:26.904Z,40.57
2019-02-28T02:30:56.410Z,50.07
2019-02-28T02:33:28.191Z,48.50
2019-02-28T02:36:00.398Z,47.73
2019-02-28T02:38:39.744Z,46.97
2019-02-28T02:41:05.443Z,42.33
2019-02-28T02:43:37.020Z,47.73
2019-02-28T02:46:08.185Z,42.90
2019-02-28T02:48:42.280Z,50.37
2019-02-28T02:51:13.368Z,54.50
2019-02-28T02:53:44.994Z,45.13
2019-02-28T02:56:16.622Z,50.43
2019-02-28T02:58:50.795Z,46.13
2019-02-28T03:01:23.156Z,49.43
2019-02-28T03:03:54.326Z,50.43
2019-02-28T03:06:25.834Z,60.03
2019-02-28T03:08:57.404Z,53.07
2019-02-28T03:11:29.017Z,54.37
2019-02-28T03:14:00.443Z,56.83
2019-02-28T03:16:33.003Z,56.63
2019-02-28T03:19:04.509Z,53.83
2019-02-28T03:21:36.156Z,46.67
2019-02-28T03:24:14.729Z,55.60
2019-02-28T03:26:41.840Z,56.43
2019-02-28T03:29:13.795Z,54.13
2019-02-28T03:31:55.239Z,64.90
2019-02-28T03:34:18.624Z,47.80
2019-02-28T03:36:55.280Z,63.70
2019-02-28T03:39:25.653Z,63.07
2019-02-28T03:41:57.818Z,63.13
2019-02-28T03:44:28.989Z,63.93
2019-02-28T03:47:00.883Z,69.73
2019-02-28T03:49:32.667Z,55.07
2019-02-28T03:52:06.608Z,94.63
2019-02-28T03:54:38.586Z,61.80
2019-02-28T03:57:09.372Z,61.90
2019-02-28T03:59:41.758Z,57.93
2019-02-28T04:02:12.737Z,53.13
2019-02-28T04:04:48.811Z,53.53
2019-02-28T04:07:17.078Z,54.07
2019-02-28T04:09:49.548Z,56.40
2019-02-28T04:12:21.287Z,58.60
2019-02-28T04:14:52.927Z,52.17
2019-02-28T04:17:29.833Z,49.70
2019-02-28T04:20:00.092Z,42.90
2019-02-28T04:22:31.991Z,49.87
2019-02-28T04:25:03.279Z,46.43
2019-02-28T04:27:40.446Z,41.20
2019-02-28T04:30:11.793Z,39.40
2019-02-28T04:32:43.593Z,50.50
2019-02-28T04:35:15.575Z,41.30
2019-02-28T04:37:47.339Z,30.57
2019-02-28T04:40:18.705Z,43.70
2019-02-28T04:42:50.325Z,40.73
2019-02-28T04:45:23.332Z,32.40
2019-02-28T04:47:54.572Z,27.20
2019-02-28T04:50:31.301Z,30.07
2019-02-28T04:52:58.279Z,31.37
2019-02-28T04:55:30.659Z,34.83
2019-02-28T04:58:02.558Z,27.03
2019-02-28T05:00:33.767Z,29.50
2019-02-28T05:03:05.904Z,27.37
2019-02-28T05:05:37.716Z,34.37
2019-02-28T05:08:09.624Z,30.03
2019-02-28T05:10:41.286Z,33.40
2019-02-28T05:13:14.994Z,27.93
2019-02-28T05:15:47.465Z,27.33
2019-02-28T05:18:18.962Z,27.60
2019-02-28T05:20:49.796Z,28.77
2019-02-28T05:23:21.582Z,26.33
2019-02-28T05:25:54.146Z,27.13
2019-02-28T05:28:25.558Z,26.07
2019-02-28T05:30:57.008Z,21.57
2019-02-28T05:33:28.249Z,21.70
2019-02-28T05:36:00.262Z,19.87
2019-02-28T05:38:32.751Z,19.20
2019-02-28T05:41:04.267Z,21.00
2019-02-28T05:43:35.549Z,19.60
2019-02-28T05:46:06.729Z,20.23
2019-02-28T05:48:39.401Z,20.30
2019-02-28T05:51:11.231Z,21.40
2019-02-28T05:53:42.713Z,19.40
2019-02-28T05:56:13.769Z,18.93
2019-02-28T05:58:45.545Z,22.17
2019-02-28T06:01:17.169Z,20.10
2019-02-28T06:03:50.053Z,20.30
2019-02-28T06:06:22.154Z,19.67
2019-02-28T06:08:53.687Z,19.77
2019-02-28T06:11:25.752Z,19.10
2019-02-28T06:13:57.221Z,21.20
2019-02-28T06:16:28.629Z,20.93
2019-02-28T06:19:00.361Z,20.20
2019-02-28T06:21:31.640Z,20.60
2019-02-28T06:24:03.266Z,20.10
2019-02-28T06:26:36.086Z,20.57
2019-02-28T06:29:07.918Z,22.07
2019-02-28T06:31:40.215Z,21.23
2019-02-28T06:34:13.245Z,20.50
2019-02-28T06:36:44.756Z,20.80
2019-02-28T06:39:17.593Z,19.53
2019-02-28T06:41:48.945Z,20.63
2019-02-28T06:44:20.525Z,20.70
2019-02-28T06:46:52.512Z,23.50
2019-02-28T06:49:24.276Z,19.03
2019-02-28T06:51:56.259Z,20.77
2019-02-28T06:54:35.302Z,21.20
2019-02-28T06:57:27.440Z,19.57
2019-02-28T06:59:59.357Z,20.93
2019-02-28T07:02:31.494Z,20.83
2019-02-28T07:05:04.080Z,19.37
2019-02-28T07:07:36.374Z,20.33
2019-02-28T07:10:09.618Z,24.60
2019-02-28T07:12:42.159Z,20.37
2019-02-28T07:15:13.639Z,20.10
2019-02-28T07:17:46.520Z,18.30
2019-02-28T07:20:18.279Z,21.20
2019-02-28T07:22:54.369Z,19.50
2019-02-28T07:25:23.075Z,19.43
2019-02-28T07:27:54.339Z,19.30
2019-02-28T07:30:26.647Z,20.77
2019-02-28T07:32:58.529Z,21.13
2019-02-28T07:35:34.051Z,20.87
2019-02-28T07:38:08.083Z,21.80
2019-02-28T07:40:39.494Z,21.23
2019-02-28T07:43:27.877Z,20.90
2019-02-28T07:46:00.165Z,21.30
2019-02-28T07:48:32.483Z,22.20
2019-02-28T07:51:03.644Z,22.00
2019-02-28T07:53:35.991Z,20.70
2019-02-28T07:56:08.594Z,22.43
2019-02-28T07:58:40.028Z,22.23
2019-02-28T08:01:12.197Z,24.10
2019-02-28T08:03:44.773Z,25.07
2019-02-28T08:06:16.342Z,22.00
2019-02-28T08:08:48.124Z,25.43
2019-02-28T08:11:20.860Z,25.90
2019-02-28T08:13:52.791Z,25.80
2019-02-28T08:16:24.401Z,25.90
2019-02-28T08:18:55.631Z,24.80
2019-02-28T08:21:27.241Z,29.47
2019-02-28T08:23:58.249Z,26.67
2019-02-28T08:26:29.754Z,25.13
2019-02-28T08:29:07.810Z,27.70
2019-02-28T08:31:38.161Z,24.93
2019-02-28T08:34:09.530Z,26.23
2019-02-28T08:36:43.875Z,26.50
2019-02-28T08:39:16.850Z,27.63
2019-02-28T08:41:49.633Z,27.93
2019-02-28T08:44:23.834Z,28.47
2019-02-28T08:46:54.553Z,29.40
2019-02-28T08:49:26.864Z,29.73
2019-02-28T08:52:02.501Z,29.60
2019-02-28T08:54:33.284Z,31.00
2019-02-28T08:57:05.189Z,29.63
2019-02-28T08:59:37.164Z,30.77
2019-02-28T09:02:08.046Z,31.10
2019-02-28T09:04:41.438Z,31.20
2019-02-28T09:07:15.241Z,31.43
2019-02-28T09:09:46.187Z,35.00
2019-02-28T09:12:17.474Z,31.27
2019-02-28T09:14:48.772Z,32.20
2019-02-28T09:17:20.424Z,33.80
2019-02-28T09:19:53.552Z,33.10
2019-02-28T09:22:27.272Z,34.57
2019-02-28T09:24:57.471Z,33.23
2019-02-28T09:27:28.279Z,34.60
2019-02-28T09:29:59.488Z,35.27
2019-02-28T09:32:30.521Z,32.50
2019-02-28T09:35:05.742Z,37.13
2019-02-28T09:37:36.417Z,36.43
2019-02-28T09:40:08.593Z,34.23
2019-02-28T09:42:40.189Z,33.73
2019-02-28T09:45:14.431Z,34.07
2019-02-28T09:47:46.030Z,40.13
2019-02-28T09:50:22.434Z,34.37
2019-02-28T09:52:54.201Z,32.70
2019-02-28T09:55:25.847Z,32.27
2019-02-28T09:57:58.279Z,34.23
2019-02-28T10:00:30.499Z,32.87
2019-02-28T10:03:02.761Z,32.30
2019-02-28T10:05:38.677Z,31.90
2019-02-28T10:08:08.593Z,31.43
2019-02-28T10:10:41.057Z,32.67
2019-02-28T10:13:14.586Z,33.30
2019-02-28T10:15:46.567Z,33.77
2019-02-28T10:18:17.310Z,36.70
2019-02-28T10:20:49.055Z,35.80
2019-02-28T10:23:21.512Z,34.10
2019-02-28T10:25:54.224Z,35.43
2019-02-28T10:28:25.895Z,34.87
2019-02-28T10:30:57.563Z,33.03
2019-02-28T10:33:29.049Z,30.77
2019-02-28T10:36:01.643Z,31.67
2019-02-28T10:38:33.915Z,31.00
2019-02-28T10:41:08.557Z,27.73
2019-02-28T10:43:39.647Z,29.67
2019-02-28T10:46:13.344Z,30.40
2019-02-28T10:48:50.698Z,30.97
2019-02-28T10:51:16.271Z,28.57
2019-02-28T10:53:47.201Z,30.00
2019-02-28T10:56:18.198Z,28.97
2019-02-28T10:58:50.161Z,30.47
2019-02-28T11:01:22.685Z,29.20
2019-02-28T11:03:53.756Z,29.37
2019-02-28T11:06:28.057Z,29.00
2019-02-28T11:08:58.323Z,29.40
2019-02-28T11:11:29.791Z,29.67
2019-02-28T11:14:03.908Z,28.03
2019-02-28T11:16:33.707Z,26.20
2019-02-28T11:19:05.459Z,28.57
2019-02-28T11:21:36.664Z,27.70
2019-02-28T11:24:07.986Z,27.77
2019-02-28T11:26:44.740Z,29.43
2019-02-28T11:29:15.683Z,28.87
2019-02-28T11:31:46.999Z,29.30
2019-02-28T11:34:18.847Z,29.57
2019-02-28T11:36:50.401Z,27.00
2019-02-28T11:39:22.790Z,26.17
2019-02-28T11:41:54.435Z,28.43
2019-02-28T11:44:26.068Z,27.40
2019-02-28T11:46:57.869Z,26.50
2019-02-28T11:49:29.485Z,26.80
2019-02-28T11:52:00.887Z,26.83
2019-02-28T11:54:31.865Z,25.73
2019-02-28T11:57:08.745Z,25.00
2019-02-28T11:59:40.589Z,23.87
2019-02-28T12:02:12.443Z,25.70
2019-02-28T12:04:44.354Z,25.83
2019-02-28T12:07:15.928Z,25.17
2019-02-28T12:09:51.382Z,20.30
2019-02-28T12:12:21.288Z,21.47
2019-02-28T12:14:53.533Z,20.27
2019-02-28T12:17:28.326Z,22.20
2019-02-28T12:19:59.096Z,22.40
2019-02-28T12:22:30.342Z,20.00
2019-02-28T12:25:04.482Z,20.27
2019-02-28T12:27:34.790Z,20.40
2019-02-28T12:30:08.311Z,21.10
2019-02-28T12:32:40.352Z,22.23
2019-02-28T12:35:12.871Z,24.20
2019-02-28T12:37:46.050Z,22.33
2019-02-28T12:40:19.562Z,26.77
2019-02-28T12:42:50.668Z,27.13
2019-02-28T12:45:25.191Z,29.00
2019-02-28T12:47:56.492Z,25.90
2019-02-28T12:50:29.417Z,22.93
2019-02-28T12:53:01.691Z,22.33
2019-02-28T12:55:35.503Z,23.27
2019-02-28T12:58:07.117Z,23.50
2019-02-28T13:00:39.689Z,23.40
2019-02-28T13:03:12.122Z,23.33
2019-02-28T13:05:47.824Z,23.40
2019-02-28T13:08:17.356Z,23.93
2019-02-28T13:10:49.300Z,23.90
2019-02-28T13:13:27.493Z,24.40
2019-02-28T13:15:54.667Z,25.30
2019-02-28T13:18:26.743Z,24.43
2019-02-28T13:20:58.511Z,26.63
2019-02-28T13:23:33.159Z,27.37
2019-02-28T13:26:05.694Z,27.13
2019-02-28T13:28:41.071Z,26.07
2019-02-28T13:31:12.281Z,27.67
2019-02-28T13:33:43.444Z,26.13
2019-02-28T13:36:14.458Z,25.70
2019-02-28T13:38:46.486Z,28.07
2019-02-28T13:41:21.726Z,26.40
2019-02-28T13:43:54.729Z,26.83
2019-02-28T13:46:32.393Z,27.67
2019-02-28T13:48:59.857Z,24.23
2019-02-28T13:51:32.767Z,26.37
2019-02-28T13:54:06.501Z,26.43
2019-02-28T13:56:38.482Z,26.60
2019-02-28T13:59:10.083Z,25.13
2019-02-28T14:01:41.637Z,28.17
2019-02-28T14:04:13.669Z,27.30
2019-02-28T14:06:46.027Z,27.47
2019-02-28T14:09:18.852Z,26.20
2019-02-28T14:11:52.003Z,27.93
2019-02-28T14:14:23.553Z,27.37
2019-02-28T14:16:58.271Z,28.10
2019-02-28T14:19:29.155Z,26.40
2019-02-28T14:22:00.844Z,25.40
2019-02-28T14:24:32.895Z,24.67
2019-02-28T14:27:04.286Z,27.57
2019-02-28T14:29:36.642Z,24.30
2019-02-28T14:32:08.385Z,24.10
2019-02-28T14:34:40.399Z,25.40
2019-02-28T14:37:12.231Z,29.70
2019-02-28T14:39:44.085Z,24.20
2019-02-28T14:42:15.925Z,23.90
2019-02-28T14:44:48.084Z,25.93
2019-02-28T14:47:24.912Z,26.20
2019-02-28T14:49:55.481Z,23.97
2019-02-28T14:52:27.773Z,23.93
2019-02-28T14:54:59.234Z,26.70
2019-02-28T14:57:30.843Z,27.63
2019-02-28T15:00:06.304Z,30.93
2019-02-28T15:02:37.146Z,27.10
2019-02-28T15:05:09.925Z,28.57
2019-02-28T15:07:42.142Z,29.53
2019-02-28T15:10:15.731Z,27.30
2019-02-28T15:12:47.124Z,25.90
2019-02-28T15:15:20.427Z,27.10
2019-02-28T15:17:53.572Z,26.20
2019-02-28T15:20:31.505Z,22.90
2019-02-28T15:23:01.004Z,24.93
2019-02-28T15:25:32.887Z,26.67
2019-02-28T15:28:05.756Z,27.60
2019-02-28T15:30:38.189Z,24.57
2019-02-28T15:33:11.212Z,23.27
2019-02-28T15:35:43.181Z,22.13
2019-02-28T15:38:19.613Z,25.07
2019-02-28T15:40:50.924Z,25.03
2019-02-28T15:43:23.302Z,25.00
2019-02-28T15:45:56.272Z,24.70
2019-02-28T15:48:31.413Z,25.30
2019-02-28T15:51:03.638Z,27.07
2019-02-28T15:53:35.391Z,27.50
2019-02-28T15:56:13.233Z,28.20
2019-02-28T15:58:42.350Z,28.47
2019-02-28T16:01:15.477Z,31.70
2019-02-28T16:03:48.441Z,30.17
2019-02-28T16:06:21.838Z,28.60
2019-02-28T16:08:54.436Z,27.27
2019-02-28T16:11:27.352Z,31.93
2019-02-28T16:14:00.500Z,27.50
2019-02-28T16:16:33.642Z,28.03
2019-02-28T16:19:06.555Z,28.93
2019-02-28T16:21:41.614Z,30.90
2019-02-28T16:24:14.435Z,35.60
2019-02-28T16:26:48.027Z,29.53
2019-02-28T16:29:21.368Z,35.70
2019-02-28T16:31:54.748Z,38.97
2019-02-28T16:34:27.085Z,56.23
2019-02-28T16:37:01.006Z,49.67
2019-02-28T16:39:33.606Z,36.43
2019-02-28T16:42:08.342Z,46.77
2019-02-28T16:44:39.868Z,63.53
2019-02-28T16:47:12.830Z,47.17
2019-02-28T16:49:45.615Z,31.30
2019-02-28T16:52:18.330Z,30.73
2019-02-28T16:54:53.379Z,32.37
2019-02-28T16:57:27.040Z,34.20
2019-02-28T17:00:04.026Z,30.60
2019-02-28T17:02:35.082Z,35.83
2019-02-28T17:05:08.044Z,34.60
2019-02-28T17:07:43.579Z,35.57
2019-02-28T17:10:18.080Z,36.90
2019-02-28T17:13:08.946Z,35.30
2019-02-28T17:15:48.701Z,34.07
2019-02-28T17:18:22.587Z,36.27
2019-02-28T17:20:55.441Z,32.97
2019-02-28T17:23:28.130Z,37.03
2019-02-28T17:26:01.824Z,32.50
2019-02-28T17:28:49.366Z,36.53
2019-02-28T17:31:44.626Z,34.80
2019-02-28T17:34:23.805Z,34.93
2019-02-28T17:36:55.571Z,35.87
2019-02-28T17:39:28.487Z,39.77
2019-02-28T17:42:08.289Z,39.63
2019-02-28T17:45:20.091Z,37.20
2019-02-28T17:48:24.568Z,36.90
2019-02-28T17:51:22.748Z,35.53
2019-02-28T17:54:32.957Z,40.80
2019-02-28T17:57:41.665Z,43.03
2019-02-28T18:00:30.609Z,39.17
2019-02-28T18:03:49.430Z,41.13
2019-02-28T18:07:01.002Z,39.73
2019-02-28T18:09:51.454Z,42.00
2019-02-28T18:13:00.171Z,40.53
2019-02-28T18:16:03.866Z,42.80
2019-02-28T18:19:18.147Z,40.97
2019-02-28T18:22:21.825Z,37.53
2019-02-28T18:25:48.689Z,39.37
2019-02-28T18:29:06.964Z,42.17
2019-02-28T18:31:41.930Z,40.20
2019-02-28T18:34:25.003Z,40.93
2019-02-28T18:36:57.447Z,42.57
2019-02-28T18:39:30.390Z,44.40
2019-02-28T18:42:02.643Z,41.30
2019-02-28T18:44:37.340Z,40.53
2019-02-28T18:47:10.207Z,42.40
2019-02-28T18:49:43.646Z,40.57
2019-02-28T18:52:15.881Z,42.00
2019-02-28T18:54:49.162Z,47.57
2019-02-28T18:57:22.435Z,42.07
2019-02-28T18:59:56.407Z,41.30
2019-02-28T19:02:29.208Z,48.23
2019-02-28T19:05:02.084Z,46.20
2019-02-28T19:07:34.841Z,50.63
2019-02-28T19:10:09.027Z,40.80
2019-02-28T19:12:42.288Z,44.37
2019-02-28T19:15:16.974Z,43.93
2019-02-28T19:17:50.003Z,38.50
2019-02-28T19:20:26.359Z,37.93
2019-02-28T19:22:59.360Z,43.23
2019-02-28T19:25:32.228Z,38.90
2019-02-28T19:28:06.211Z,41.80
2019-02-28T19:30:40.387Z,42.10
2019-02-28T19:33:13.115Z,43.73
2019-02-28T19:35:46.232Z,39.77
2019-02-28T19:38:20.709Z,43.77
2019-02-28T19:40:55.352Z,43.00
2019-02-28T19:43:27.908Z,40.03
2019-02-28T19:46:00.676Z,37.97
2019-02-28T19:48:34.430Z,40.33
2019-02-28T19:51:06.904Z,47.17
2019-02-28T19:53:39.580Z,48.73
2019-02-28T19:56:13.122Z,50.70
2019-02-28T19:58:46.196Z,48.77
2019-02-28T20:01:20.963Z,49.73
2019-02-28T20:03:55.147Z,50.90
2019-02-28T20:06:27.681Z,48.80
2019-02-28T20:09:00.329Z,48.10
2019-02-28T20:11:33.409Z,50.10
2019-02-28T20:14:05.674Z,46.23
2019-02-28T20:16:38.588Z,47.10
2019-02-28T20:19:12.137Z,50.97
2019-02-28T20:21:47.211Z,49.93
2019-02-28T20:24:24.439Z,45.90
2019-02-28T20:26:58.082Z,48.07
2019-02-28T20:29:30.788Z,52.97
2019-02-28T20:32:03.807Z,45.73
2019-02-28T20:34:36.362Z,48.43
2019-02-28T20:37:09.325Z,45.40
2019-02-28T20:39:41.675Z,47.00
2019-02-28T20:42:14.137Z,39.93
2019-02-28T20:44:47.318Z,45.73
2019-02-28T20:47:20.597Z,54.90
2019-02-28T20:49:54.353Z,48.73
2019-02-28T20:52:28.046Z,56.47
2019-02-28T20:55:01.432Z,65.93
2019-02-28T20:57:34.372Z,70.57
2019-02-28T21:00:07.590Z,69.17
2019-02-28T21:02:41.427Z,70.67
2019-02-28T21:05:14.479Z,69.73
2019-02-28T21:07:48.216Z,74.83
2019-02-28T21:10:20.029Z,71.63
2019-02-28T21:12:52.584Z,78.37
2019-02-28T21:15:25.186Z,78.80
2019-02-28T21:21:06.615Z,76.73
2019-02-28T21:23:38.986Z,87.63
2019-02-28T21:26:11.209Z,85.80
2019-02-28T21:28:43.600Z,81.27
2019-02-28T21:31:16.292Z,71.47
2019-02-28T21:33:48.947Z,76.47
2019-02-28T21:36:20.990Z,74.87
2019-02-28T21:38:53.213Z,70.20
2019-02-28T21:41:26.719Z,77.37
2019-02-28T21:44:00.187Z,70.73
2019-02-28T21:46:31.559Z,85.60
2019-02-28T21:49:03.450Z,76.53
2019-02-28T21:51:35.133Z,84.27
2019-02-28T21:54:06.298Z,76.63
2019-02-28T21:56:37.502Z,77.33
2019-02-28T21:59:10.217Z,80.13
2019-02-28T22:01:44.443Z,82.70
2019-02-28T22:04:15.815Z,72.07
2019-02-28T22:06:47.677Z,81.43
2019-02-28T22:09:18.500Z,85.13
2019-02-28T22:11:50.038Z,88.77
2019-02-28T22:14:21.644Z,82.43
2019-02-28T22:16:52.941Z,76.90
2019-02-28T22:19:23.846Z,82.20
2019-02-28T22:21:55.723Z,84.77
2019-02-28T22:24:27.251Z,77.77
2019-02-28T22:26:58.528Z,77.53
2019-02-28T22:29:31.078Z,77.70
2019-02-28T22:32:24.411Z,78.97
2019-02-28T22:35:06.232Z,87.50
2019-02-28T22:37:38.721Z,75.47
2019-02-28T22:40:10.468Z,82.37
2019-02-28T22:42:43.487Z,78.37
2019-02-28T22:45:17.521Z,86.83
2019-02-28T22:47:49.145Z,71.67
2019-02-28T22:50:20.504Z,77.03
2019-02-28T22:52:53.685Z,78.50
2019-02-28T22:55:25.185Z,79.33
2019-02-28T22:57:56.342Z,79.43
2019-02-28T23:01:09.705Z,86.80
2019-02-28T23:03:41.920Z,91.20
2019-02-28T23:06:13.352Z,77.73
2019-02-28T23:08:44.884Z,78.40
2019-02-28T23:11:17.164Z,88.53
2019-02-28T23:13:49.984Z,75.43
2019-02-28T23:16:21.400Z,80.60
2019-02-28T23:18:53.374Z,72.73
2019-02-28T23:21:24.832Z,78.43
2019-02-28T23:23:56.594Z,83.07
2019-02-28T23:26:29.350Z,70.20
2019-02-28T23:29:15.652Z,75.13
2019-02-28T23:32:33.866Z,72.83
2019-02-28T23:35:06.003Z,77.30
2019-02-28T23:37:37.271Z,71.33
2019-02-28T23:40:08.922Z,83.50
2019-02-28T23:42:40.039Z,69.37
2019-02-28T23:45:14.047Z,73.10
2019-02-28T23:47:45.641Z,71.90
2019-02-28T23:50:16.346Z,72.17
2019-02-28T23:52:48.372Z,74.93
2019-02-28T23:55:19.509Z,70.70
2019-02-28T23:57:50.732Z,78.10
